Time;durP1;ratioP1;P1;durP2;ratioP2;P2;SDS_P1;SDS_P2;PMS_P1;PMS_P2;Temp;Humidity;BMP_temperature;BMP_pressure;BME280_temperature;BME280_humidity;BME280_pressure;Samples;Min_cycle;Max_cycle;Signal;HPM_P1;HPM_P2
2024/03/22 00:01:54;;;;;;;20.30;14.82;;;14.90;78.30;;;;;;4982057;28;20455;-39
2024/03/22 00:04:20;;;;;;;19.80;15.38;;;14.90;78.30;;;;;;4960709;28;20034;-36
2024/03/22 00:06:49;;;;;;;20.40;15.15;;;15.00;78.30;;;;;;4977878;28;20039;-37
2024/03/22 00:09:15;;;;;;;21.02;15.05;;;15.00;78.40;;;;;;4966690;28;20081;-37
2024/03/22 00:11:42;;;;;;;20.08;14.93;;;14.90;78.30;;;;;;4975865;28;20023;-37
2024/03/22 00:14:09;;;;;;;19.75;14.63;;;14.90;78.40;;;;;;4981003;28;20091;-36
2024/03/22 00:16:35;;;;;;;20.15;14.65;;;14.90;78.30;;;;;;4976820;28;20043;-35
2024/03/22 00:19:01;;;;;;;19.95;14.98;;;14.90;78.30;;;;;;4960493;28;20035;-37
2024/03/22 00:21:28;;;;;;;19.75;15.18;;;14.90;78.30;;;;;;4971580;28;20039;-37
2024/03/22 00:23:53;;;;;;;19.77;15.35;;;14.90;78.30;;;;;;4969611;28;20023;-38
2024/03/22 00:26:19;;;;;;;19.48;14.68;;;14.90;78.30;;;;;;4980492;28;20035;-38
2024/03/22 00:28:45;;;;;;;18.60;13.70;;;14.90;78.40;;;;;;4988213;28;20061;-39
2024/03/22 00:31:11;;;;;;;19.80;14.02;;;14.90;78.30;;;;;;4982043;28;20023;-38
2024/03/22 00:33:36;;;;;;;19.45;14.50;;;14.90;78.40;;;;;;4968234;28;20026;-38
2024/03/22 00:36:02;;;;;;;19.80;14.88;;;14.90;78.30;;;;;;4969433;28;20070;-38
2024/03/22 00:38:28;;;;;;;18.83;14.15;;;14.90;78.30;;;;;;4979181;28;20030;-38
2024/03/22 00:40:54;;;;;;;19.55;14.70;;;14.90;78.30;;;;;;4976783;28;20023;-40
2024/03/22 00:43:20;;;;;;;20.38;14.82;;;14.90;78.30;;;;;;4978799;28;20110;-37
2024/03/22 00:45:47;;;;;;;19.15;14.68;;;14.90;78.30;;;;;;4975631;28;20038;-38
2024/03/22 00:48:12;;;;;;;20.17;14.30;;;14.90;78.30;;;;;;4977054;28;20034;-38
2024/03/22 00:50:38;;;;;;;20.13;15.07;;;14.90;78.30;;;;;;4964068;28;20031;-39
2024/03/22 00:53:05;;;;;;;19.75;14.38;;;14.90;78.40;;;;;;4975038;28;20046;-38
2024/03/22 00:55:31;;;;;;;20.67;15.27;;;14.90;78.30;;;;;;4984726;28;20532;-36
2024/03/22 00:57:56;;;;;;;19.77;15.02;;;14.90;78.30;;;;;;4968686;28;20035;-38
2024/03/22 01:00:23;;;;;;;18.73;14.25;;;14.90;78.30;;;;;;4976393;28;20113;-34
2024/03/22 01:02:50;;;;;;;20.02;15.25;;;14.90;78.40;;;;;;4972641;28;20023;-37
2024/03/22 01:05:16;;;;;;;19.45;14.20;;;14.90;78.30;;;;;;4979407;28;20027;-38
2024/03/22 01:07:42;;;;;;;21.95;16.10;;;14.90;78.40;;;;;;4980859;28;20085;-41
2024/03/22 01:10:08;;;;;;;20.30;14.63;;;14.90;78.30;;;;;;4978960;28;20022;-41
2024/03/22 01:12:34;;;;;;;19.90;15.25;;;14.90;78.30;;;;;;4975069;28;20046;-39
2024/03/22 01:15:00;;;;;;;21.15;15.25;;;14.90;78.30;;;;;;4979204;28;20034;-40
2024/03/22 01:17:25;;;;;;;19.27;14.20;;;14.90;78.40;;;;;;4979842;28;20066;-41
2024/03/22 01:19:51;;;;;;;20.63;15.02;;;14.90;78.30;;;;;;4974415;28;20015;-41
2024/03/22 01:22:17;;;;;;;20.48;15.15;;;14.90;78.30;;;;;;4978666;28;20065;-40
2024/03/22 01:24:44;;;;;;;21.45;15.27;;;14.90;78.30;;;;;;4977021;28;20082;-38
2024/03/22 01:27:09;;;;;;;19.52;14.93;;;14.90;78.30;;;;;;4981003;28;20537;-41
2024/03/22 01:29:35;;;;;;;20.35;14.77;;;14.90;78.30;;;;;;4983456;28;20019;-41
2024/03/22 01:32:02;;;;;;;21.17;14.80;;;14.90;78.40;;;;;;4978644;28;20023;-39
2024/03/22 01:34:28;;;;;;;19.48;14.48;;;14.90;78.40;;;;;;4975163;28;20023;-33
2024/03/22 01:36:54;;;;;;;19.83;13.90;;;14.90;78.30;;;;;;4978487;28;20041;-39
2024/03/22 01:39:21;;;;;;;19.80;14.85;;;14.90;78.30;;;;;;4981108;28;20101;-39
2024/03/22 01:41:50;;;;;;;19.55;14.52;;;14.90;78.30;;;;;;4963867;28;20022;-36
2024/03/22 01:44:17;;;;;;;21.38;15.60;;;14.90;78.30;;;;;;4961932;28;20039;-37
2024/03/22 01:46:44;;;;;;;20.58;14.98;;;14.90;78.30;;;;;;4960054;28;20019;-36
2024/03/22 01:49:13;;;;;;;20.88;14.80;;;14.90;78.30;;;;;;4989854;28;20280;-38
2024/03/22 01:51:40;;;;;;;20.63;14.45;;;14.90;78.40;;;;;;4965531;28;20510;-38
2024/03/22 01:54:09;;;;;;;19.52;13.52;;;14.90;78.40;;;;;;4974472;28;20042;-38
2024/03/22 01:56:37;;;;;;;20.27;14.75;;;14.90;78.40;;;;;;4980432;28;20045;-38
2024/03/22 01:59:04;;;;;;;21.00;15.10;;;14.90;78.30;;;;;;4979365;28;20034;-37
2024/03/22 02:01:30;;;;;;;21.13;15.20;;;14.90;78.30;;;;;;4979994;28;20030;-35
2024/03/22 02:03:56;;;;;;;20.10;14.55;;;14.90;78.40;;;;;;4973042;28;20069;-39
2024/03/22 02:06:21;;;;;;;19.98;14.63;;;14.90;78.30;;;;;;4967804;28;20034;-37
2024/03/22 02:08:47;;;;;;;21.73;15.65;;;14.90;78.40;;;;;;4975260;28;20444;-42
2024/03/22 02:11:13;;;;;;;20.05;14.50;;;14.90;78.30;;;;;;4977530;28;20062;-39
2024/03/22 02:13:39;;;;;;;20.20;14.68;;;14.80;78.30;;;;;;4976825;28;20050;-39
2024/03/22 02:16:05;;;;;;;22.17;14.38;;;14.90;78.40;;;;;;4972529;28;20062;-40
2024/03/22 02:18:31;;;;;;;21.90;15.85;;;14.80;78.30;;;;;;4987477;28;20031;-36
2024/03/22 02:20:57;;;;;;;20.58;14.27;;;14.80;78.90;;;;;;4978818;28;20058;-38
2024/03/22 02:23:33;;;;;;;21.67;15.55;;;14.80;78.30;;;;;;4972899;28;20020;-38
2024/03/22 02:26:00;;;;;;;21.63;14.98;;;14.80;78.30;;;;;;4967351;28;20031;-39
2024/03/22 02:28:26;;;;;;;20.15;14.50;;;14.90;78.40;;;;;;4983711;28;20050;-38
2024/03/22 02:30:51;;;;;;;21.63;15.60;;;14.90;78.40;;;;;;4962652;28;20027;-38
2024/03/22 02:33:17;;;;;;;19.98;14.73;;;14.80;78.30;;;;;;4969233;28;20034;-40
2024/03/22 02:35:43;;;;;;;21.58;15.95;;;14.80;78.30;;;;;;4975696;28;20027;-38
2024/03/22 02:38:09;;;;;;;20.58;14.60;;;14.80;78.30;;;;;;4968654;28;20129;-37
2024/03/22 02:40:35;;;;;;;22.73;15.73;;;14.80;78.30;;;;;;4974164;28;20035;-38
2024/03/22 02:43:00;;;;;;;21.75;15.45;;;14.80;78.30;;;;;;4969886;28;20105;-39
2024/03/22 02:45:26;;;;;;;21.48;15.23;;;14.80;78.30;;;;;;4973970;28;20078;-39
2024/03/22 02:47:52;;;;;;;20.40;15.52;;;14.80;78.30;;;;;;4980136;28;20042;-38
2024/03/22 02:50:17;;;;;;;20.20;14.82;;;14.80;78.30;;;;;;4976003;28;20079;-39
2024/03/22 02:52:43;;;;;;;22.27;16.20;;;14.80;78.30;;;;;;4979084;28;20070;-34
2024/03/22 02:55:09;;;;;;;20.48;15.60;;;14.80;78.30;;;;;;4979069;28;20050;-39
2024/03/22 02:57:34;;;;;;;20.73;15.80;;;14.80;78.30;;;;;;4980000;28;20035;-42
2024/03/22 03:00:00;;;;;;;22.15;16.15;;;14.80;78.30;;;;;;4973661;28;20020;-38
2024/03/22 03:02:26;;;;;;;20.63;14.93;;;14.80;78.30;;;;;;4975645;28;20043;-38
2024/03/22 03:04:52;;;;;;;22.60;16.58;;;14.80;78.40;;;;;;4978314;28;20119;-38
2024/03/22 03:07:17;;;;;;;20.10;14.63;;;14.80;78.30;;;;;;4976936;28;20093;-38
2024/03/22 03:09:43;;;;;;;22.08;15.52;;;14.80;78.30;;;;;;4982347;28;20030;-36
2024/03/22 03:12:09;;;;;;;22.02;16.33;;;14.80;78.30;;;;;;4979449;28;20137;-38
2024/03/22 03:14:34;;;;;;;22.05;16.20;;;14.80;78.40;;;;;;4973739;28;20057;-36
2024/03/22 03:17:00;;;;;;;23.02;16.20;;;14.80;78.30;;;;;;4978984;28;20388;-38
2024/03/22 03:19:26;;;;;;;22.50;16.17;;;14.80;78.30;;;;;;4988373;28;20039;-41
2024/03/22 03:21:51;;;;;;;22.60;15.48;;;14.80;78.40;;;;;;4963593;28;20030;-40
2024/03/22 03:24:17;;;;;;;23.75;16.88;;;14.80;78.40;;;;;;4974009;28;20023;-39
2024/03/22 03:26:43;;;;;;;19.33;14.95;;;14.80;78.50;;;;;;4980323;28;20027;-37
2024/03/22 03:29:08;;;;;;;19.88;15.43;;;14.80;79.00;;;;;;4978845;28;20051;-38
2024/03/22 03:31:34;;;;;;;21.73;15.63;;;14.80;78.40;;;;;;4978821;28;20428;-38
2024/03/22 03:34:00;;;;;;;23.33;16.75;;;14.80;78.40;;;;;;4981069;28;20058;-35
2024/03/22 03:36:26;;;;;;;19.70;14.23;;;14.80;78.40;;;;;;4972784;28;20107;-37
2024/03/22 03:38:51;;;;;;;23.05;17.13;;;14.80;78.40;;;;;;4983271;28;21488;-40
2024/03/22 03:41:17;;;;;;;21.58;16.00;;;14.80;78.50;;;;;;4966368;28;20047;-34
2024/03/22 03:43:43;;;;;;;20.95;15.70;;;14.80;78.40;;;;;;4978766;28;20027;-41
2024/03/22 03:46:08;;;;;;;22.50;16.88;;;14.80;78.40;;;;;;4961317;28;20062;-39
2024/03/22 03:48:34;;;;;;;21.80;16.48;;;14.80;78.50;;;;;;4962395;28;20435;-38
2024/03/22 03:51:03;;;;;;;22.23;16.17;;;14.70;78.40;;;;;;4974427;28;20031;-37
2024/03/22 03:53:29;;;;;;;21.23;15.90;;;14.80;78.40;;;;;;4978244;28;20495;-38
2024/03/22 03:55:55;;;;;;;22.38;16.38;;;14.80;78.50;;;;;;4968805;28;20035;-38
2024/03/22 03:58:21;;;;;;;21.40;16.00;;;14.80;78.40;;;;;;4980084;28;20026;-38
2024/03/22 04:00:47;;;;;;;23.90;17.38;;;14.80;78.40;;;;;;4980652;28;20483;-38
2024/03/22 04:03:14;;;;;;;22.90;16.95;;;14.80;78.50;;;;;;4961288;28;20031;-37
2024/03/22 04:05:40;;;;;;;22.75;16.60;;;14.70;78.40;;;;;;4967320;28;20034;-35
2024/03/22 04:08:05;;;;;;;20.70;15.88;;;14.80;78.40;;;;;;4981446;28;20057;-38
2024/03/22 04:10:31;;;;;;;20.30;15.30;;;14.80;78.50;;;;;;4981838;28;20023;-37
2024/03/22 04:12:58;;;;;;;21.02;16.20;;;14.70;78.40;;;;;;4974213;28;20359;-39
2024/03/22 04:15:23;;;;;;;23.20;16.60;;;14.70;78.40;;;;;;4979010;28;20023;-38
2024/03/22 04:17:49;;;;;;;22.60;15.98;;;14.80;78.50;;;;;;4981510;28;20026;-38
2024/03/22 04:20:15;;;;;;;23.42;17.48;;;14.80;78.50;;;;;;4986117;28;20102;-38
2024/03/22 04:22:41;;;;;;;21.30;15.65;;;14.70;78.40;;;;;;4975452;28;20033;-39
2024/03/22 04:25:08;;;;;;;22.73;16.55;;;14.70;78.40;;;;;;4967866;28;20324;-35
2024/03/22 04:27:36;;;;;;;22.95;16.55;;;14.70;78.50;;;;;;4967433;28;20063;-38
2024/03/22 04:30:03;;;;;;;19.67;14.68;;;14.70;78.50;;;;;;4974910;28;20042;-38
2024/03/22 04:32:28;;;;;;;21.10;16.42;;;14.80;78.50;;;;;;4980933;28;20489;-35
2024/03/22 04:34:54;;;;;;;21.65;16.17;;;14.70;78.50;;;;;;4975326;28;20098;-38
2024/03/22 04:37:21;;;;;;;21.33;15.85;;;14.80;78.50;;;;;;4949795;28;20082;-38
2024/03/22 04:39:46;;;;;;;22.17;16.20;;;14.70;78.50;;;;;;4976801;28;20042;-37
2024/03/22 04:42:12;;;;;;;21.40;16.45;;;14.70;78.50;;;;;;4977878;28;20026;-37
2024/03/22 04:44:38;;;;;;;21.02;15.90;;;14.70;78.50;;;;;;4973353;28;20046;-39
2024/03/22 04:47:04;;;;;;;23.27;16.65;;;14.80;78.50;;;;;;4963437;28;20082;-34
2024/03/22 04:49:29;;;;;;;20.15;15.48;;;14.80;78.50;;;;;;4987756;28;20034;-36
2024/03/22 04:51:55;;;;;;;20.67;15.65;;;14.70;78.50;;;;;;4979405;28;20031;-37
2024/03/22 04:54:21;;;;;;;20.38;15.98;;;14.70;78.50;;;;;;4975123;28;20043;-38
2024/03/22 04:56:46;;;;;;;20.90;15.55;;;14.70;78.50;;;;;;4982912;28;20034;-38
2024/03/22 04:59:12;;;;;;;22.35;16.70;;;14.70;78.50;;;;;;4983311;28;20027;-38
2024/03/22 05:01:38;;;;;;;22.38;16.92;;;14.70;78.50;;;;;;4978966;28;20039;-37
2024/03/22 05:04:04;;;;;;;20.80;15.18;;;14.80;78.50;;;;;;4977805;28;20042;-38
2024/03/22 05:06:29;;;;;;;20.17;15.05;;;14.70;78.50;;;;;;4968609;28;20031;-38
2024/03/22 05:08:55;;;;;;;20.55;15.68;;;14.70;78.50;;;;;;4975032;28;20054;-38
2024/03/22 05:11:21;;;;;;;21.67;16.40;;;14.70;78.50;;;;;;4971211;28;20026;-36
2024/03/22 05:13:47;;;;;;;21.35;15.48;;;14.70;78.50;;;;;;4976574;28;20066;-39
2024/03/22 05:16:12;;;;;;;20.38;15.45;;;14.70;78.50;;;;;;4959223;28;20066;-37
2024/03/22 05:18:38;;;;;;;20.30;15.68;;;14.80;78.60;;;;;;4988584;28;20702;-37
2024/03/22 05:21:04;;;;;;;20.40;15.73;;;14.70;78.50;;;;;;4979587;28;20054;-36
2024/03/22 05:23:30;;;;;;;21.10;16.38;;;14.70;78.60;;;;;;4978455;28;20086;-38
2024/03/22 05:25:55;;;;;;;20.83;15.35;;;14.70;78.50;;;;;;4965200;28;20058;-37
2024/03/22 05:28:21;;;;;;;19.88;15.05;;;14.70;78.50;;;;;;4975796;28;20034;-38
2024/03/22 05:30:47;;;;;;;21.38;15.48;;;14.70;78.50;;;;;;4951262;28;20139;-39
2024/03/22 05:33:12;;;;;;;20.15;15.13;;;14.70;78.50;;;;;;4964836;28;20031;-37
2024/03/22 05:35:38;;;;;;;19.95;14.52;;;14.70;78.60;;;;;;4971682;28;20031;-39
2024/03/22 05:38:04;;;;;;;18.75;15.02;;;14.70;78.60;;;;;;4961413;28;20035;-37
2024/03/22 05:40:30;;;;;;;24.42;15.95;;;14.70;78.60;;;;;;4972480;28;20081;-38
2024/03/22 05:42:56;;;;;;;18.88;14.63;;;14.70;78.60;;;;;;4975430;28;20479;-35
2024/03/22 05:45:22;;;;;;;20.15;15.23;;;14.70;79.20;;;;;;4962312;28;20504;-37
2024/03/22 05:47:47;;;;;;;18.38;14.35;;;14.70;78.60;;;;;;4980030;28;20038;-37
2024/03/22 05:50:14;;;;;;;21.02;15.13;;;14.70;78.60;;;;;;4977985;28;20035;-38
2024/03/22 05:52:40;;;;;;;19.35;14.65;;;14.70;78.60;;;;;;4961261;28;20412;-38
2024/03/22 05:55:06;;;;;;;21.08;14.65;;;14.70;78.70;;;;;;4978746;28;20098;-39
2024/03/22 05:57:32;;;;;;;21.23;15.90;;;14.70;78.70;;;;;;4966864;28;20043;-37
2024/03/22 05:59:57;;;;;;;18.88;14.15;;;14.70;78.70;;;;;;4985564;28;20062;-38
2024/03/22 06:02:23;;;;;;;20.20;14.50;;;14.70;78.70;;;;;;4947576;28;20035;-35
2024/03/22 06:04:49;;;;;;;17.27;14.00;;;14.60;78.70;;;;;;4973716;28;20098;-38
2024/03/22 06:07:16;;;;;;;18.35;14.32;;;14.60;78.70;;;;;;4960550;28;20058;-36
2024/03/22 06:09:49;;;;;;;18.00;14.57;;;14.60;78.60;;;;;;4978342;28;20114;-38
2024/03/22 06:12:15;;;;;;;18.48;14.13;;;14.60;78.70;;;;;;4971555;28;20066;-36
2024/03/22 06:14:42;;;;;;;18.90;14.32;;;14.60;78.70;;;;;;4976217;28;20297;-39
2024/03/22 06:17:08;;;;;;;18.58;13.90;;;14.60;78.70;;;;;;4973393;28;20047;-38
2024/03/22 06:19:35;;;;;;;19.13;14.27;;;14.60;78.70;;;;;;4968118;28;20065;-38
2024/03/22 06:22:02;;;;;;;19.20;14.48;;;14.60;78.70;;;;;;4960149;28;20031;-35
2024/03/22 06:24:28;;;;;;;21.45;14.90;;;14.60;78.70;;;;;;4965084;28;20039;-37
2024/03/22 06:26:54;;;;;;;18.70;13.52;;;14.60;78.70;;;;;;4986306;28;20118;-39
2024/03/22 06:29:20;;;;;;;18.30;13.63;;;14.60;78.70;;;;;;4973884;28;20410;-39
2024/03/22 06:31:46;;;;;;;18.23;13.75;;;14.60;78.70;;;;;;4979008;28;20019;-39
2024/03/22 06:34:12;;;;;;;17.77;13.18;;;14.60;78.70;;;;;;4971678;28;20042;-36
2024/03/22 06:36:38;;;;;;;19.40;14.00;;;14.60;78.70;;;;;;4966764;28;20030;-38
2024/03/22 06:39:06;;;;;;;17.25;13.25;;;14.60;78.70;;;;;;4981501;28;20015;-37
2024/03/22 06:41:32;;;;;;;17.25;12.75;;;14.60;78.70;;;;;;4981884;28;20031;-39
2024/03/22 06:43:58;;;;;;;18.05;13.13;;;14.60;78.70;;;;;;4968545;28;20022;-38
2024/03/22 06:46:24;;;;;;;18.10;13.15;;;14.60;78.70;;;;;;4972085;28;20082;-39
2024/03/22 06:48:50;;;;;;;17.70;12.80;;;14.60;78.70;;;;;;4984259;28;20144;-38
2024/03/22 06:51:16;;;;;;;16.33;12.52;;;14.60;78.70;;;;;;4969213;28;20575;-39
2024/03/22 06:53:42;;;;;;;16.05;12.68;;;14.60;78.70;;;;;;4974708;28;20042;-40
2024/03/22 06:56:11;;;;;;;17.05;12.93;;;14.60;78.70;;;;;;4974767;28;20478;-38
2024/03/22 06:58:38;;;;;;;18.25;12.52;;;14.60;78.70;;;;;;4988075;28;20042;-38
2024/03/22 07:01:04;;;;;;;16.73;13.07;;;14.60;78.70;;;;;;4978034;28;20548;-39
2024/03/22 07:03:30;;;;;;;17.05;12.95;;;14.60;78.70;;;;;;4963848;28;20148;-39
2024/03/22 07:05:57;;;;;;;18.85;13.18;;;14.60;78.70;;;;;;4967433;28;20054;-37
2024/03/22 07:08:23;;;;;;;18.35;13.18;;;14.60;78.70;;;;;;4986380;28;20049;-39
2024/03/22 07:10:50;;;;;;;16.80;12.82;;;14.60;78.70;;;;;;4986433;28;20413;-39
2024/03/22 07:13:15;;;;;;;17.92;13.05;;;14.60;78.70;;;;;;4965778;28;20042;-36
2024/03/22 07:15:42;;;;;;;16.45;12.75;;;14.60;78.60;;;;;;4979385;28;20431;-36
2024/03/22 07:18:08;;;;;;;17.05;12.55;;;14.60;78.60;;;;;;4975640;28;20045;-39
2024/03/22 07:20:33;;;;;;;17.45;12.90;;;14.60;78.60;;;;;;4990056;28;20023;-39
2024/03/22 07:22:59;;;;;;;16.50;12.05;;;14.60;78.60;;;;;;4981946;28;20401;-38
2024/03/22 07:25:25;;;;;;;17.20;12.88;;;14.60;78.60;;;;;;4981845;28;20033;-38
2024/03/22 07:27:51;;;;;;;15.38;12.35;;;14.60;78.60;;;;;;4980395;28;20022;-37
2024/03/22 07:30:16;;;;;;;16.40;12.35;;;14.60;78.60;;;;;;4988807;28;20154;-39
2024/03/22 07:32:42;;;;;;;16.27;12.23;;;14.60;78.60;;;;;;4966091;28;20506;-39
2024/03/22 07:35:08;;;;;;;14.43;11.85;;;14.60;78.60;;;;;;4978189;28;20133;-38
2024/03/22 07:37:37;;;;;;;16.10;11.70;;;14.60;78.60;;;;;;4978245;28;20042;-38
2024/03/22 07:40:03;;;;;;;16.38;12.88;;;14.60;78.60;;;;;;4967937;28;20099;-39
2024/03/22 07:42:29;;;;;;;17.33;13.10;;;14.60;78.60;;;;;;4966144;28;20050;-38
2024/03/22 07:44:54;;;;;;;17.40;12.55;;;14.70;78.70;;;;;;4964507;28;20024;-38
2024/03/22 07:47:20;;;;;;;15.65;11.85;;;14.60;78.60;;;;;;4966824;28;20023;-37
2024/03/22 07:49:45;;;;;;;16.63;12.30;;;14.60;78.60;;;;;;4979611;28;20042;-38
2024/03/22 07:52:11;;;;;;;16.80;12.85;;;14.70;78.70;;;;;;4977526;28;20031;-38
2024/03/22 07:54:37;;;;;;;18.40;13.15;;;14.70;78.60;;;;;;4969603;28;20415;-37
2024/03/22 07:57:03;;;;;;;17.83;12.18;;;14.70;78.60;;;;;;4969939;28;20040;-36
2024/03/22 07:59:29;;;;;;;16.92;12.55;;;14.70;78.60;;;;;;4973247;28;20028;-37
2024/03/22 08:01:57;;;;;;;15.60;12.40;;;14.70;78.70;;;;;;4973175;28;20143;-39
2024/03/22 08:04:22;;;;;;;17.77;13.38;;;14.70;78.60;;;;;;4965990;28;20029;-36
2024/03/22 08:06:50;;;;;;;16.83;12.30;;;14.70;78.60;;;;;;4974497;28;20066;-38
2024/03/22 08:09:18;;;;;;;16.77;12.40;;;14.70;78.50;;;;;;4980743;28;20030;-39
2024/03/22 08:11:44;;;;;;;17.25;13.52;;;14.80;78.60;;;;;;4973835;28;20041;-40
2024/03/22 08:14:10;;;;;;;17.52;12.82;;;14.80;78.60;;;;;;4976247;28;20058;-36
2024/03/22 08:16:36;;;;;;;15.77;11.77;;;14.80;78.60;;;;;;4980429;28;20118;-38
2024/03/22 08:19:01;;;;;;;16.95;12.73;;;14.80;78.50;;;;;;4980606;28;20034;-39
2024/03/22 08:21:27;;;;;;;16.13;12.70;;;14.80;78.50;;;;;;4974838;28;20133;-36
2024/03/22 08:23:53;;;;;;;16.80;12.40;;;14.80;78.50;;;;;;4980475;28;20529;-39
2024/03/22 08:26:19;;;;;;;16.48;12.10;;;14.80;78.40;;;;;;4978373;28;20063;-38
2024/03/22 08:28:46;;;;;;;15.60;12.82;;;14.80;78.40;;;;;;4981165;28;20059;-36
2024/03/22 08:31:12;;;;;;;16.67;12.27;;;14.80;78.40;;;;;;4975834;28;20038;-39
2024/03/22 08:33:38;;;;;;;17.00;12.30;;;14.90;78.50;;;;;;4961522;28;20031;-38
2024/03/22 08:36:04;;;;;;;18.73;13.57;;;14.90;78.40;;;;;;4969424;28;20486;-39
2024/03/22 08:38:30;;;;;;;17.30;13.80;;;14.90;78.40;;;;;;4978857;28;20061;-37
2024/03/22 08:40:55;;;;;;;19.60;13.95;;;14.90;78.30;;;;;;4980529;28;20030;-37
2024/03/22 08:43:23;;;;;;;16.48;12.75;;;14.90;78.30;;;;;;4969975;28;20095;-35
2024/03/22 08:45:48;;;;;;;16.77;12.73;;;14.90;78.30;;;;;;4964316;28;20019;-34
2024/03/22 08:48:14;;;;;;;17.05;13.05;;;14.90;78.30;;;;;;4974738;28;20035;-37
2024/03/22 08:50:43;;;;;;;19.38;13.90;;;15.00;78.30;;;;;;4974082;28;20019;-38
2024/03/22 08:53:08;;;;;;;16.63;12.50;;;15.00;78.30;;;;;;4979628;28;20039;-38
2024/03/22 08:55:34;;;;;;;16.98;13.73;;;14.90;78.20;;;;;;4980202;28;20026;-37
2024/03/22 08:58:00;;;;;;;19.52;13.60;;;15.00;78.30;;;;;;4980533;28;20034;-36
2024/03/22 09:00:26;;;;;;;19.13;14.23;;;15.00;78.30;;;;;;4986059;28;20031;-36
2024/03/22 09:02:52;;;;;;;18.33;13.63;;;15.00;78.30;;;;;;4965587;28;20031;-38
2024/03/22 09:05:18;;;;;;;19.00;13.90;;;15.00;78.30;;;;;;4976043;28;20029;-37
2024/03/22 09:07:44;;;;;;;20.63;15.63;;;15.00;78.20;;;;;;4976075;28;20525;-36
2024/03/22 09:10:11;;;;;;;18.58;14.65;;;15.00;78.20;;;;;;4989513;28;20027;-37
2024/03/22 09:12:37;;;;;;;19.20;14.30;;;15.00;78.20;;;;;;4977130;28;20037;-38
2024/03/22 09:15:03;;;;;;;19.92;15.73;;;15.00;78.20;;;;;;4970124;28;20018;-37
2024/03/22 09:17:29;;;;;;;19.67;14.90;;;15.00;78.20;;;;;;4958441;28;20050;-35
2024/03/22 09:19:55;;;;;;;20.00;14.05;;;15.00;78.20;;;;;;4974734;28;20027;-35
2024/03/22 09:22:21;;;;;;;19.17;14.65;;;15.00;78.20;;;;;;4976707;28;20050;-38
2024/03/22 09:24:46;;;;;;;19.17;14.55;;;15.10;78.20;;;;;;4974117;28;20045;-37
2024/03/22 09:27:12;;;;;;;20.02;15.60;;;15.00;78.20;;;;;;4954977;28;20035;-39
2024/03/22 09:29:38;;;;;;;19.77;14.68;;;15.10;78.20;;;;;;4962896;28;20026;-37
2024/03/22 09:32:04;;;;;;;18.98;14.60;;;15.10;78.20;;;;;;4979899;28;20502;-39
2024/03/22 09:34:31;;;;;;;21.95;15.75;;;15.10;78.20;;;;;;4969890;28;20879;-38
2024/03/22 09:36:57;;;;;;;20.23;14.80;;;15.10;78.20;;;;;;4976298;28;20057;-38
2024/03/22 09:39:23;;;;;;;20.52;15.27;;;15.10;78.20;;;;;;4981915;28;20305;-36
2024/03/22 09:41:51;;;;;;;19.85;14.68;;;15.10;78.20;;;;;;4970268;28;20045;-38
2024/03/22 09:44:19;;;;;;;21.90;16.13;;;15.10;78.20;;;;;;4964024;28;20106;-39
2024/03/22 09:46:46;;;;;;;22.55;16.63;;;15.10;78.20;;;;;;4972723;28;20027;-40
2024/03/22 09:49:13;;;;;;;20.20;14.88;;;15.10;78.30;;;;;;4977166;28;20031;-39
2024/03/22 09:51:43;;;;;;;20.75;15.50;;;15.10;78.90;;;;;;4961422;28;20069;-39
2024/03/22 09:54:10;;;;;;;19.85;14.65;;;15.10;78.30;;;;;;4970746;28;20359;-39
2024/03/22 09:56:38;;;;;;;19.67;15.80;;;15.10;78.20;;;;;;4973831;28;20051;-36
2024/03/22 09:59:04;;;;;;;21.52;16.25;;;15.10;78.30;;;;;;4966071;28;20200;-39
2024/03/22 10:01:30;;;;;;;20.77;15.85;;;15.10;78.30;;;;;;4971949;28;20476;-40
2024/03/22 10:03:57;;;;;;;20.05;15.15;;;15.10;78.30;;;;;;4973854;28;20065;-36
2024/03/22 10:06:22;;;;;;;21.08;15.85;;;15.10;78.30;;;;;;4960190;28;20091;-36
2024/03/22 10:08:48;;;;;;;21.10;16.42;;;15.10;78.30;;;;;;4976147;28;20025;-37
2024/03/22 10:11:14;;;;;;;20.98;15.35;;;15.10;78.30;;;;;;4962651;28;20035;-37
2024/03/22 10:13:39;;;;;;;20.65;15.02;;;15.00;78.20;;;;;;4972860;28;20023;-39
2024/03/22 10:16:05;;;;;;;20.95;15.82;;;15.10;78.30;;;;;;4982455;28;20618;-37
2024/03/22 10:18:34;;;;;;;23.17;16.00;;;15.10;78.30;;;;;;4981871;28;20066;-39
2024/03/22 10:21:06;;;;;;;20.85;15.65;;;15.10;78.30;;;;;;4987481;28;20031;-38
2024/03/22 10:23:32;;;;;;;19.48;15.45;;;15.10;78.30;;;;;;4971658;28;20027;-37
2024/03/22 10:25:59;;;;;;;19.70;15.52;;;15.10;78.30;;;;;;4983745;28;20023;-36
2024/03/22 10:28:28;;;;;;;22.02;15.20;;;15.10;78.40;;;;;;4982656;28;20034;-39
2024/03/22 10:30:54;;;;;;;19.92;15.18;;;15.10;78.40;;;;;;4986327;28;20030;-37
2024/03/22 10:33:24;;;;;;;19.48;14.77;;;15.10;78.30;;;;;;4978550;28;20023;-38
2024/03/22 10:35:53;;;;;;;19.42;14.30;;;15.10;78.30;;;;;;4983397;28;20412;-39
2024/03/22 10:38:22;;;;;;;18.98;14.60;;;15.10;78.30;;;;;;4980576;28;20091;-38
2024/03/22 10:40:49;;;;;;;19.63;14.65;;;15.10;78.30;;;;;;4979268;28;20026;-39
2024/03/22 10:43:16;;;;;;;18.80;14.43;;;15.10;78.30;;;;;;4983322;28;20498;-36
2024/03/22 10:45:42;;;;;;;18.77;14.43;;;15.10;78.30;;;;;;4968978;28;20015;-38
2024/03/22 10:48:11;;;;;;;20.75;15.65;;;15.10;78.30;;;;;;4977518;28;20034;-38
2024/03/22 10:50:40;;;;;;;19.00;14.32;;;15.10;78.40;;;;;;4973345;28;20035;-37
2024/03/22 10:53:10;;;;;;;19.23;14.98;;;15.10;78.40;;;;;;4973229;28;21636;-41
2024/03/22 10:55:38;;;;;;;18.75;13.98;;;15.10;78.40;;;;;;4980627;28;20527;-41
2024/03/22 10:58:05;;;;;;;18.15;13.88;;;15.10;78.30;;;;;;4958552;28;20080;-41
2024/03/22 11:00:33;;;;;;;18.10;14.13;;;15.10;78.30;;;;;;4980308;28;20146;-41
2024/03/22 11:02:59;;;;;;;18.15;14.43;;;15.10;78.40;;;;;;4969297;28;20038;-41
2024/03/22 11:05:26;;;;;;;17.13;13.65;;;15.10;78.40;;;;;;4982246;28;20039;-41
2024/03/22 11:08:01;;;;;;;18.98;14.32;;;15.10;78.40;;;;;;4959519;28;20054;-31
2024/03/22 11:10:32;;;;;;;;;;;15.20;78.40;;;;;;4983036;28;20031;-41
2024/03/22 11:13:06;;;;;;;16.42;12.82;;;15.00;78.30;;;;;;4981413;28;19925;-39
2024/03/22 11:15:33;;;;;;;15.88;12.63;;;15.10;78.30;;;;;;4970619;28;20027;-41
2024/03/22 11:17:59;;;;;;;17.25;13.32;;;15.10;78.40;;;;;;4972759;28;20031;-41
2024/03/22 11:20:29;;;;;;;17.60;13.35;;;15.10;78.40;;;;;;4984846;28;20034;-45
2024/03/22 11:22:56;;;;;;;16.70;13.63;;;15.10;78.40;;;;;;4980505;28;20510;-38
2024/03/22 11:25:22;;;;;;;16.60;12.63;;;15.10;78.40;;;;;;4979413;28;20069;-38
2024/03/22 11:27:48;;;;;;;16.08;12.73;;;15.10;78.40;;;;;;4969994;28;20154;-39
2024/03/22 11:30:15;;;;;;;17.55;13.07;;;15.10;78.40;;;;;;4960262;28;20102;-38
2024/03/22 11:32:46;;;;;;;16.80;13.43;;;15.10;78.50;;;;;;4973700;28;20031;-39
2024/03/22 11:35:13;;;;;;;15.30;12.43;;;15.10;78.40;;;;;;4979863;28;20034;-34
2024/03/22 11:37:42;;;;;;;16.67;12.65;;;15.10;78.40;;;;;;4981190;28;20125;-37
2024/03/22 11:40:12;;;;;;;15.93;13.25;;;15.20;78.50;;;;;;4976811;28;20494;-36
2024/03/22 11:42:40;;;;;;;15.02;12.55;;;15.20;78.50;;;;;;4977311;28;20042;-37
2024/03/22 11:45:10;;;;;;;14.85;11.90;;;15.10;78.40;;;;;;4971311;28;20042;-37
2024/03/22 11:47:37;;;;;;;14.07;11.30;;;15.10;78.40;;;;;;4981466;28;20077;-39
2024/03/22 11:50:03;;;;;;;14.90;11.85;;;15.20;78.40;;;;;;4980980;28;20038;-38
2024/03/22 11:52:29;;;;;;;14.88;11.52;;;15.20;78.50;;;;;;4965011;28;20027;-40
2024/03/22 11:54:55;;;;;;;12.85;11.10;;;15.20;78.50;;;;;;4971486;28;20042;-36
2024/03/22 11:57:22;;;;;;;14.65;11.32;;;15.20;78.50;;;;;;4972195;28;20208;-39
2024/03/22 11:59:47;;;;;;;13.75;11.15;;;15.10;78.50;;;;;;4984413;28;20027;-38
2024/03/22 12:02:14;;;;;;;14.63;11.75;;;15.10;78.40;;;;;;4968670;28;20031;-36
2024/03/22 12:04:45;;;;;;;13.13;11.23;;;15.20;78.50;;;;;;4981943;28;20477;-36
2024/03/22 12:07:13;;;;;;;12.98;10.90;;;15.20;78.50;;;;;;4964487;28;20147;-38
2024/03/22 12:09:41;;;;;;;11.30;9.65;;;15.20;78.50;;;;;;4983182;28;20038;-36
2024/03/22 12:12:09;;;;;;;12.50;9.80;;;15.10;78.50;;;;;;4969874;28;20016;-38
2024/03/22 12:14:35;;;;;;;12.10;10.13;;;15.20;78.60;;;;;;4976464;28;20049;-36
2024/03/22 12:17:02;;;;;;;12.05;9.82;;;15.20;78.50;;;;;;4970812;28;20039;-38
2024/03/22 12:19:28;;;;;;;11.52;9.32;;;15.20;78.50;;;;;;4969777;28;20040;-37
2024/03/22 12:21:54;;;;;;;11.38;9.95;;;15.20;78.60;;;;;;4979663;28;20086;-38
2024/03/22 12:24:20;;;;;;;12.25;10.23;;;15.20;78.50;;;;;;4979501;28;20106;-37